Time;durP1;ratioP1;P1;durP2;ratioP2;P2;SDS_P1;SDS_P2;PMS_P1;PMS_P2;Temp;Humidity;BMP_temperature;BMP_pressure;BME280_temperature;BME280_humidity;BME280_pressure;Samples;Min_cycle;Max_cycle;Signal;HPM_P1;HPM_P2
2023/11/30 00:02:18;;;;;;;23.67;15.15;;;0.10;99.90;;;;;;7377013;19;20018;-61
2023/11/30 00:04:45;;;;;;;24.88;16.20;;;0.10;99.90;;;;;;7378878;19;20056;-61
2023/11/30 00:07:12;;;;;;;26.52;16.45;;;0.10;99.90;;;;;;7373902;19;20018;-61
2023/11/30 00:09:38;;;;;;;23.30;15.15;;;0.10;99.90;;;;;;7374178;19;20025;-61
2023/11/30 00:12:05;;;;;;;24.90;15.88;;;0.10;99.90;;;;;;7375698;19;20034;-61
2023/11/30 00:14:32;;;;;;;23.88;16.02;;;0.10;99.90;;;;;;7377563;19;20647;-61
2023/11/30 00:16:58;;;;;;;22.63;14.93;;;0.10;99.90;;;;;;7377590;19;21541;-61
2023/11/30 00:19:24;;;;;;;22.23;13.77;;;0.10;99.90;;;;;;7375460;19;20359;-61
2023/11/30 00:21:51;;;;;;;20.52;13.55;;;0.00;99.90;;;;;;7378198;19;20022;-61
2023/11/30 00:24:17;;;;;;;19.25;13.50;;;0.00;99.90;;;;;;7377581;19;20477;-61
2023/11/30 00:26:44;;;;;;;18.05;11.98;;;0.00;99.90;;;;;;7374747;19;20019;-61
2023/11/30 00:29:10;;;;;;;19.08;12.70;;;-0.10;99.90;;;;;;7375227;19;20025;-61
2023/11/30 00:31:36;;;;;;;19.55;13.15;;;-0.10;99.90;;;;;;7377498;19;20021;-61
2023/11/30 00:34:03;;;;;;;20.65;13.02;;;-0.20;99.90;;;;;;7373305;19;20015;-61
2023/11/30 00:36:29;;;;;;;20.65;14.10;;;-0.20;99.90;;;;;;7376219;19;20795;-61
2023/11/30 00:38:55;;;;;;;21.08;12.27;;;-0.30;99.90;;;;;;7375186;19;20022;-61
2023/11/30 00:41:21;;;;;;;17.50;12.02;;;-0.30;99.90;;;;;;7377024;19;20049;-61
2023/11/30 00:43:48;;;;;;;18.75;12.98;;;-0.30;99.90;;;;;;7377978;19;20028;-61
2023/11/30 00:46:17;;;;;;;20.45;12.95;;;-0.30;99.90;;;;;;7377819;19;20011;-61
2023/11/30 00:48:45;;;;;;;20.30;13.02;;;-0.40;99.90;;;;;;7376538;19;20022;-61
2023/11/30 00:51:11;;;;;;;18.52;13.18;;;-0.40;99.90;;;;;;7374879;19;20025;-59
2023/11/30 00:53:38;;;;;;;23.08;13.65;;;-0.30;99.90;;;;;;7375632;19;20905;-59
2023/11/30 00:56:06;;;;;;;26.13;15.48;;;-0.30;99.90;;;;;;7373206;19;20051;-60
2023/11/30 00:58:33;;;;;;;24.67;15.68;;;-0.30;99.90;;;;;;7376513;19;20039;-59
2023/11/30 01:00:59;;;;;;;26.13;15.73;;;-0.30;99.90;;;;;;7374180;19;20086;-59
2023/11/30 01:03:26;;;;;;;28.80;15.98;;;-0.20;99.90;;;;;;7373986;19;20011;-60
2023/11/30 01:05:52;;;;;;;32.42;17.88;;;-0.10;99.90;;;;;;7368792;19;20383;-60
2023/11/30 01:08:18;;;;;;;33.70;18.65;;;-0.20;99.90;;;;;;7373560;19;20018;-59
2023/11/30 01:10:45;;;;;;;32.03;18.58;;;-0.20;99.90;;;;;;7374944;19;20014;-60
2023/11/30 01:13:12;;;;;;;28.92;16.10;;;-0.10;99.90;;;;;;7370477;19;20015;-59
2023/11/30 01:15:38;;;;;;;27.00;16.00;;;-0.10;99.90;;;;;;7370523;19;20525;-60
2023/11/30 01:18:05;;;;;;;32.72;17.77;;;-0.10;99.90;;;;;;7372544;19;20124;-61
2023/11/30 01:20:32;;;;;;;40.47;19.48;;;-0.20;99.90;;;;;;7370759;19;20132;-61
2023/11/30 01:22:59;;;;;;;34.15;19.75;;;-0.10;99.90;;;;;;7371089;19;20022;-61
2023/11/30 01:25:27;;;;;;;37.70;20.30;;;-0.20;99.90;;;;;;7369961;19;20696;-60
2023/11/30 01:27:53;;;;;;;47.42;21.42;;;-0.20;99.90;;;;;;7371335;19;20018;-60
2023/11/30 01:30:23;;;;;;;54.53;22.08;;;-0.20;99.90;;;;;;7369589;19;20385;-59
2023/11/30 01:32:49;;;;;;;46.65;21.83;;;-0.20;99.90;;;;;;7373130;19;20022;-60
2023/11/30 01:35:17;;;;;;;146.20;29.00;;;-0.20;99.90;;;;;;7370496;19;20022;-60
2023/11/30 01:37:43;;;;;;;50.72;20.50;;;-0.20;99.90;;;;;;7368771;19;20029;-60
2023/11/30 01:40:09;;;;;;;113.75;24.27;;;-0.20;99.90;;;;;;7368350;19;20471;-59
2023/11/30 01:42:36;;;;;;;39.38;20.42;;;-0.20;99.90;;;;;;7370206;19;20018;-59
2023/11/30 01:45:03;;;;;;;44.40;22.42;;;-0.20;99.90;;;;;;7370846;19;20064;-59
2023/11/30 01:47:32;;;;;;;36.38;19.45;;;-0.30;99.90;;;;;;7372938;19;20068;-60
2023/11/30 01:50:01;;;;;;;41.88;20.15;;;-0.30;99.90;;;;;;7370552;19;20014;-60
2023/11/30 01:52:29;;;;;;;43.42;21.10;;;-0.30;99.90;;;;;;7371741;19;20022;-59
2023/11/30 01:54:58;;;;;;;50.22;21.90;;;-0.30;99.90;;;;;;7373523;19;20058;-59
2023/11/30 01:57:24;;;;;;;43.67;21.77;;;-0.30;99.90;;;;;;7372132;19;20105;-60
2023/11/30 01:59:50;;;;;;;40.00;20.13;;;-0.40;99.90;;;;;;7370851;19;20419;-59
2023/11/30 02:02:18;;;;;;;37.08;20.25;;;-0.30;99.90;;;;;;7370983;19;20019;-59
2023/11/30 02:04:51;;;;;;;36.78;20.33;;;-0.40;99.90;;;;;;7371467;19;20664;-59
2023/11/30 02:07:17;;;;;;;35.63;19.58;;;-0.40;99.90;;;;;;7371125;19;20029;-59
2023/11/30 02:09:44;;;;;;;39.17;21.15;;;-0.30;99.90;;;;;;7370806;19;20025;-59
2023/11/30 02:12:13;;;;;;;41.42;22.65;;;-0.40;99.90;;;;;;7373859;19;20036;-59
2023/11/30 02:14:40;;;;;;;45.42;22.33;;;-0.30;99.90;;;;;;7371656;19;20469;-59
2023/11/30 02:17:08;;;;;;;46.67;23.50;;;-0.30;99.90;;;;;;7372000;19;20023;-59
2023/11/30 02:19:35;;;;;;;67.57;26.40;;;-0.30;99.90;;;;;;7374730;19;20024;-59
2023/11/30 02:22:01;;;;;;;88.03;29.05;;;-0.30;99.90;;;;;;7378083;19;20024;-59
2023/11/30 02:24:27;;;;;;;165.07;36.85;;;-0.30;99.90;;;;;;7378441;19;20443;-59
2023/11/30 02:26:54;;;;;;;87.47;26.90;;;-0.30;99.90;;;;;;7376886;19;20811;-59
2023/11/30 02:29:20;;;;;;;92.00;24.92;;;-0.30;99.90;;;;;;7377806;19;20033;-59
2023/11/30 02:31:46;;;;;;;48.13;22.58;;;-0.30;99.90;;;;;;7379386;19;20027;-59
2023/11/30 02:34:12;;;;;;;69.93;27.13;;;-0.20;99.90;;;;;;7380289;19;20384;-59
2023/11/30 02:36:38;;;;;;;56.55;24.30;;;-0.20;99.90;;;;;;7377827;19;20501;-59
2023/11/30 02:39:05;;;;;;;44.45;22.52;;;-0.20;99.90;;;;;;7377925;19;20018;-59
2023/11/30 02:41:31;;;;;;;85.80;26.50;;;-0.20;99.90;;;;;;7371817;19;20086;-59
2023/11/30 02:43:57;;;;;;;110.60;27.73;;;-0.20;99.90;;;;;;7375900;19;20029;-59
2023/11/30 02:46:24;;;;;;;129.45;29.23;;;-0.20;99.90;;;;;;7375678;19;20014;-59
2023/11/30 02:48:50;;;;;;;146.55;31.50;;;-0.20;99.90;;;;;;7378648;19;20046;-59
2023/11/30 02:51:17;;;;;;;182.02;32.70;;;-0.20;99.90;;;;;;7378160;19;20474;-59
2023/11/30 02:53:43;;;;;;;113.13;25.85;;;-0.20;99.90;;;;;;7380296;19;20817;-59
2023/11/30 02:56:10;;;;;;;118.95;27.05;;;-0.20;99.90;;;;;;7377957;19;20039;-59
2023/11/30 02:58:36;;;;;;;181.30;35.17;;;-0.20;99.90;;;;;;7379520;19;20052;-59
2023/11/30 03:01:03;;;;;;;100.60;25.98;;;-0.20;99.90;;;;;;7375738;19;20033;-60
2023/11/30 03:03:29;;;;;;;169.23;29.38;;;-0.20;99.90;;;;;;7376813;19;20022;-60
2023/11/30 03:05:55;;;;;;;172.75;29.55;;;-0.20;99.90;;;;;;7376930;19;20611;-60
2023/11/30 03:08:22;;;;;;;127.57;25.83;;;-0.20;99.90;;;;;;7374168;19;20056;-60
2023/11/30 03:10:48;;;;;;;181.43;30.13;;;-0.20;99.90;;;;;;7377964;19;20022;-60
2023/11/30 03:13:15;;;;;;;113.18;27.55;;;-0.20;99.90;;;;;;7375080;19;20033;-60
2023/11/30 03:15:49;;;;;;;128.02;26.83;;;-0.20;99.90;;;;;;7379445;19;20022;-60
2023/11/30 03:18:15;;;;;;;157.98;30.70;;;-0.10;99.90;;;;;;7378255;19;20029;-60
2023/11/30 03:20:42;;;;;;;127.57;29.70;;;-0.10;99.90;;;;;;7376274;19;20107;-60
2023/11/30 03:23:08;;;;;;;106.30;26.48;;;-0.10;99.90;;;;;;7377438;19;20758;-60
2023/11/30 03:25:35;;;;;;;95.22;24.13;;;-0.10;99.90;;;;;;7377293;19;20400;-60
2023/11/30 03:28:02;;;;;;;89.57;23.42;;;-0.10;99.90;;;;;;7370098;19;20098;-60
2023/11/30 03:30:28;;;;;;;100.30;26.00;;;-0.10;99.90;;;;;;7374428;19;20025;-60
2023/11/30 03:32:55;;;;;;;136.45;27.63;;;-0.10;99.90;;;;;;7373689;19;20382;-61
2023/11/30 03:35:22;;;;;;;180.77;31.42;;;-0.10;99.90;;;;;;7377376;19;20022;-59
2023/11/30 03:37:50;;;;;;;129.65;27.58;;;-0.10;99.90;;;;;;7371227;19;20064;-59
2023/11/30 03:40:16;;;;;;;86.60;24.55;;;-0.10;99.90;;;;;;7376414;19;20098;-59
2023/11/30 03:42:45;;;;;;;112.85;23.90;;;-0.10;99.90;;;;;;7375304;19;20018;-59
2023/11/30 03:45:11;;;;;;;73.93;23.90;;;-0.10;99.90;;;;;;7378617;19;20479;-59
2023/11/30 03:47:38;;;;;;;81.28;22.15;;;-0.10;99.90;;;;;;7372103;19;20573;-60
2023/11/30 03:50:04;;;;;;;47.63;20.17;;;-0.10;99.90;;;;;;7375451;19;20015;-60
2023/11/30 03:52:31;;;;;;;44.50;20.45;;;-0.10;99.90;;;;;;7373123;19;20014;-60
2023/11/30 03:54:57;;;;;;;46.47;20.98;;;-0.10;99.90;;;;;;7374313;19;20378;-60
2023/11/30 03:57:23;;;;;;;103.50;23.92;;;-0.10;99.90;;;;;;7373780;19;20428;-60
2023/11/30 03:59:50;;;;;;;50.85;17.55;;;-0.10;99.90;;;;;;7374530;19;20102;-60
2023/11/30 04:02:16;;;;;;;67.35;20.73;;;-0.20;99.90;;;;;;7374952;19;20029;-60
2023/11/30 04:04:42;;;;;;;64.28;22.20;;;-0.10;99.90;;;;;;7374808;19;20448;-60
2023/11/30 04:07:09;;;;;;;47.63;21.75;;;-0.10;99.90;;;;;;7376969;19;20605;-60
2023/11/30 04:09:38;;;;;;;37.58;19.63;;;-0.10;99.90;;;;;;7370938;19;20014;-60
2023/11/30 04:12:04;;;;;;;46.45;21.52;;;-0.10;99.90;;;;;;7375242;19;20030;-61
2023/11/30 04:14:30;;;;;;;41.25;20.83;;;-0.10;99.90;;;;;;7374386;19;20601;-60
2023/11/30 04:16:56;;;;;;;37.83;19.00;;;-0.10;99.90;;;;;;7374524;19;20047;-60
2023/11/30 04:19:23;;;;;;;39.67;20.23;;;0.00;99.90;;;;;;7368630;19;20391;-61
2023/11/30 04:21:50;;;;;;;37.90;18.98;;;0.00;99.90;;;;;;7373645;19;20011;-60
2023/11/30 04:24:16;;;;;;;35.67;19.42;;;0.00;99.90;;;;;;7375446;19;20023;-60
2023/11/30 04:26:42;;;;;;;37.28;19.02;;;0.00;99.90;;;;;;7375805;19;20106;-60
2023/11/30 04:29:12;;;;;;;33.03;18.50;;;0.00;99.90;;;;;;7374276;19;20758;-60
2023/11/30 04:31:38;;;;;;;42.58;21.20;;;0.10;99.90;;;;;;7374913;19;20447;-61
2023/11/30 04:34:04;;;;;;;37.72;20.25;;;0.10;99.90;;;;;;7376292;19;20019;-60
2023/11/30 04:36:30;;;;;;;39.15;21.95;;;0.10;99.90;;;;;;7376425;19;20494;-60
2023/11/30 04:38:57;;;;;;;41.97;21.98;;;0.10;99.90;;;;;;7373219;19;20734;-60
2023/11/30 04:41:24;;;;;;;61.92;25.73;;;0.10;99.90;;;;;;7372336;19;20019;-60
2023/11/30 04:43:51;;;;;;;48.08;24.15;;;0.20;99.90;;;;;;7373191;19;21332;-60
2023/11/30 04:46:17;;;;;;;52.30;22.85;;;0.10;99.90;;;;;;7372422;19;20018;-60
2023/11/30 04:48:43;;;;;;;61.55;26.50;;;0.10;99.90;;;;;;7373596;19;20833;-60
2023/11/30 04:51:09;;;;;;;57.45;25.83;;;0.20;99.90;;;;;;7375251;19;20419;-61
2023/11/30 04:53:36;;;;;;;47.92;23.05;;;0.20;99.90;;;;;;7371095;19;20053;-61
2023/11/30 04:56:02;;;;;;;51.13;22.80;;;0.20;99.90;;;;;;7371965;19;20460;-60
2023/11/30 04:58:29;;;;;;;57.55;24.88;;;0.20;99.90;;;;;;7373463;19;20086;-61
2023/11/30 05:00:55;;;;;;;50.83;22.75;;;0.30;99.90;;;;;;7374766;19;20022;-60
2023/11/30 05:03:22;;;;;;;49.03;24.15;;;0.30;99.90;;;;;;7372771;19;20022;-59
2023/11/30 05:05:48;;;;;;;66.97;25.77;;;0.30;99.90;;;;;;7373465;19;20023;-59
2023/11/30 05:08:14;;;;;;;56.30;24.73;;;0.30;99.90;;;;;;7373972;19;20150;-59
2023/11/30 05:10:41;;;;;;;67.30;27.45;;;0.40;99.90;;;;;;7373077;19;20014;-59
2023/11/30 05:13:07;;;;;;;75.70;28.55;;;0.40;99.90;;;;;;7374597;19;20022;-59
2023/11/30 05:15:38;;;;;;;67.75;26.10;;;0.30;99.90;;;;;;7377666;19;20050;-60
2023/11/30 05:18:04;;;;;;;56.10;25.17;;;0.30;99.90;;;;;;7375999;19;20022;-59
2023/11/30 05:20:30;;;;;;;78.85;27.60;;;0.40;99.90;;;;;;7373988;19;20014;-59
2023/11/30 05:22:57;;;;;;;82.18;28.63;;;0.30;99.90;;;;;;7375411;19;20034;-59
2023/11/30 05:25:23;;;;;;;69.90;28.50;;;0.40;99.90;;;;;;7373303;19;20036;-59
2023/11/30 05:27:49;;;;;;;94.53;30.50;;;0.40;99.90;;;;;;7376616;19;20014;-60
2023/11/30 05:30:15;;;;;;;80.03;28.63;;;0.40;99.90;;;;;;7372901;19;20023;-61
2023/11/30 05:32:42;;;;;;;71.10;28.30;;;0.40;99.90;;;;;;7373467;19;20125;-60
2023/11/30 05:35:08;;;;;;;79.00;28.88;;;0.50;99.90;;;;;;7373429;19;20058;-62
2023/11/30 05:37:34;;;;;;;81.45;28.50;;;0.40;99.90;;;;;;7374904;19;20045;-61
2023/11/30 05:40:00;;;;;;;108.63;31.92;;;0.40;99.90;;;;;;7370643;19;20018;-61
2023/11/30 05:42:28;;;;;;;100.07;31.92;;;0.50;99.90;;;;;;7374489;19;20022;-61
2023/11/30 05:44:54;;;;;;;75.82;28.35;;;0.50;99.90;;;;;;7373751;19;20386;-61
2023/11/30 05:47:21;;;;;;;110.82;35.55;;;0.50;99.90;;;;;;7375631;19;20014;-61
2023/11/30 05:49:47;;;;;;;87.75;28.92;;;0.50;99.90;;;;;;7373708;19;20054;-61
2023/11/30 05:52:13;;;;;;;106.25;32.00;;;0.50;99.90;;;;;;7372808;19;20026;-62
2023/11/30 05:54:40;;;;;;;105.00;31.52;;;0.50;99.90;;;;;;7376067;19;20018;-60
2023/11/30 05:57:06;;;;;;;74.88;25.35;;;0.60;99.90;;;;;;7375785;19;20916;-61
2023/11/30 05:59:32;;;;;;;157.23;35.17;;;0.60;99.90;;;;;;7370937;19;21032;-60
2023/11/30 06:02:01;;;;;;;114.65;31.92;;;0.60;99.90;;;;;;7369826;19;20029;-61
2023/11/30 06:04:31;;;;;;;100.43;32.25;;;0.60;99.90;;;;;;7372621;19;20018;-61
2023/11/30 06:07:00;;;;;;;74.85;26.77;;;0.60;99.90;;;;;;7372096;19;20138;-61
2023/11/30 06:09:26;;;;;;;77.07;29.83;;;0.60;99.90;;;;;;7370414;19;20039;-61
2023/11/30 06:11:53;;;;;;;77.07;26.67;;;0.60;99.90;;;;;;7376760;19;20355;-62
2023/11/30 06:14:19;;;;;;;90.85;29.13;;;0.60;99.90;;;;;;7371716;19;20026;-61
2023/11/30 06:16:45;;;;;;;123.13;31.73;;;0.60;99.90;;;;;;7373202;19;20495;-61
2023/11/30 06:19:13;;;;;;;114.15;30.13;;;0.50;99.90;;;;;;7373709;19;20082;-60
2023/11/30 06:21:39;;;;;;;151.55;32.78;;;0.50;99.90;;;;;;7375873;19;20506;-60
2023/11/30 06:24:06;;;;;;;107.40;30.90;;;0.50;99.90;;;;;;7373558;19;20019;-61
2023/11/30 06:26:32;;;;;;;127.22;32.25;;;0.50;99.90;;;;;;7370071;19;20050;-61
2023/11/30 06:28:59;;;;;;;167.85;36.85;;;0.50;99.90;;;;;;7373370;19;20011;-62
2023/11/30 06:31:25;;;;;;;156.32;35.47;;;0.50;99.90;;;;;;7374142;19;20041;-61
2023/11/30 06:33:52;;;;;;;76.22;28.50;;;0.40;99.90;;;;;;7371900;19;20053;-62
2023/11/30 06:36:18;;;;;;;90.53;30.02;;;0.50;99.90;;;;;;7368663;19;20057;-60
2023/11/30 06:38:44;;;;;;;89.38;28.00;;;0.50;99.90;;;;;;7374051;19;20502;-62
2023/11/30 06:41:14;;;;;;;161.77;35.20;;;0.50;99.90;;;;;;7371832;19;20486;-61
2023/11/30 06:43:40;;;;;;;217.70;38.60;;;0.50;99.90;;;;;;7372592;19;20022;-61
2023/11/30 06:46:07;;;;;;;191.00;36.20;;;0.50;99.90;;;;;;7371596;19;20388;-63
2023/11/30 06:48:33;;;;;;;123.55;28.75;;;0.50;99.90;;;;;;7373436;19;20056;-62
2023/11/30 06:50:59;;;;;;;166.90;32.50;;;0.50;99.90;;;;;;7374621;19;20026;-62
2023/11/30 06:53:26;;;;;;;292.35;41.63;;;0.50;99.90;;;;;;7374676;19;20118;-62
2023/11/30 06:55:53;;;;;;;212.82;32.90;;;0.50;99.90;;;;;;7376849;19;20462;-63
2023/11/30 06:58:19;;;;;;;292.35;41.42;;;0.50;99.90;;;;;;7373048;19;20427;-62
2023/11/30 07:00:45;;;;;;;206.15;32.47;;;0.50;99.90;;;;;;7375481;19;20121;-62
2023/11/30 07:03:12;;;;;;;170.88;30.13;;;0.50;99.90;;;;;;7374489;19;20018;-59
2023/11/30 07:05:39;;;;;;;152.23;27.85;;;0.60;99.90;;;;;;7380140;19;20035;-58
2023/11/30 07:08:05;;;;;;;104.50;26.42;;;0.60;99.90;;;;;;7381970;19;20822;-58
2023/11/30 07:10:32;;;;;;;228.23;34.33;;;0.50;99.90;;;;;;7377721;19;20385;-59
2023/11/30 07:12:58;;;;;;;257.45;38.13;;;0.60;99.90;;;;;;7378205;19;20014;-59
2023/11/30 07:15:24;;;;;;;226.25;34.05;;;0.50;99.90;;;;;;7376716;19;20402;-61
2023/11/30 07:17:50;;;;;;;217.52;30.73;;;0.50;99.90;;;;;;7379580;19;20018;-61
2023/11/30 07:20:17;;;;;;;222.48;33.72;;;0.50;99.90;;;;;;7376145;19;20040;-59
2023/11/30 07:22:43;;;;;;;367.50;48.13;;;0.50;99.90;;;;;;7377855;19;20047;-61
2023/11/30 07:25:10;;;;;;;196.82;30.42;;;0.50;99.90;;;;;;7376508;19;20019;-62
2023/11/30 07:27:36;;;;;;;121.45;29.38;;;0.60;99.90;;;;;;7377308;19;20039;-62
2023/11/30 07:30:06;;;;;;;154.43;30.50;;;0.60;99.90;;;;;;7376951;19;20508;-61
2023/11/30 07:32:33;;;;;;;266.77;41.53;;;0.60;99.90;;;;;;7377204;19;20018;-62
2023/11/30 07:35:00;;;;;;;103.20;26.45;;;0.60;99.90;;;;;;7375971;19;20022;-62
2023/11/30 07:37:26;;;;;;;146.60;30.92;;;0.60;99.90;;;;;;7375667;19;20022;-60
2023/11/30 07:39:52;;;;;;;101.65;28.75;;;0.60;99.90;;;;;;7375792;19;20040;-63
2023/11/30 07:42:20;;;;;;;117.30;29.60;;;0.60;99.90;;;;;;7377626;19;20011;-60
2023/11/30 07:44:47;;;;;;;81.95;24.67;;;0.60;99.90;;;;;;7376299;19;20018;-58
2023/11/30 07:47:13;;;;;;;56.72;23.50;;;0.60;99.90;;;;;;7377880;19;20110;-60
2023/11/30 07:49:39;;;;;;;48.78;21.45;;;0.60;99.90;;;;;;7377776;19;20924;-62
2023/11/30 07:52:05;;;;;;;46.72;22.25;;;0.60;99.90;;;;;;7378288;19;20038;-61
2023/11/30 07:54:32;;;;;;;72.95;25.70;;;0.60;99.90;;;;;;7380255;19;20034;-62
2023/11/30 07:57:00;;;;;;;115.60;31.02;;;0.60;99.90;;;;;;7379048;19;20066;-60
2023/11/30 07:59:26;;;;;;;73.35;26.23;;;0.60;99.90;;;;;;7365717;19;20041;-60
2023/11/30 08:01:53;;;;;;;126.13;31.65;;;0.60;99.90;;;;;;7376723;19;20358;-60
2023/11/30 08:04:19;;;;;;;93.43;27.98;;;0.70;99.90;;;;;;7378820;19;20090;-60
2023/11/30 08:06:46;;;;;;;90.50;27.67;;;0.60;99.90;;;;;;7377752;19;20492;-60
2023/11/30 08:09:13;;;;;;;130.48;31.17;;;0.70;99.90;;;;;;7376819;19;20029;-63
2023/11/30 08:11:40;;;;;;;102.50;29.17;;;0.60;99.90;;;;;;7377140;19;20015;-60
2023/11/30 08:14:08;;;;;;;116.50;31.08;;;0.70;99.90;;;;;;7374169;19;20024;-60
2023/11/30 08:16:35;;;;;;;111.22;28.13;;;0.70;99.90;;;;;;7374080;19;20011;-61
2023/11/30 08:19:02;;;;;;;86.60;28.30;;;0.70;99.90;;;;;;7376505;19;20102;-61
2023/11/30 08:21:28;;;;;;;83.28;24.27;;;0.70;99.90;;;;;;7377242;19;20015;-61
2023/11/30 08:23:54;;;;;;;50.97;20.00;;;0.70;99.90;;;;;;7378956;19;20015;-60
2023/11/30 08:26:21;;;;;;;95.35;27.38;;;0.80;99.90;;;;;;7376939;19;20624;-60
2023/11/30 08:28:49;;;;;;;83.63;24.63;;;0.80;99.90;;;;;;7376374;19;20465;-60
2023/11/30 08:31:16;;;;;;;99.03;27.98;;;0.80;99.90;;;;;;7376347;19;20062;-60
2023/11/30 08:33:42;;;;;;;126.57;29.75;;;0.80;99.90;;;;;;7377547;19;20518;-60
2023/11/30 08:36:08;;;;;;;115.25;28.13;;;0.70;99.90;;;;;;7377378;19;20030;-60
2023/11/30 08:38:38;;;;;;;111.25;29.17;;;0.80;99.90;;;;;;7376634;19;20027;-60
2023/11/30 08:41:04;;;;;;;128.25;30.67;;;0.80;99.90;;;;;;7377122;19;20014;-60
2023/11/30 08:43:30;;;;;;;145.55;30.85;;;0.80;99.90;;;;;;7378712;19;20019;-60
2023/11/30 08:45:57;;;;;;;109.28;32.85;;;0.90;99.90;;;;;;7374904;19;20014;-57
2023/11/30 08:48:23;;;;;;;92.15;24.00;;;0.90;99.90;;;;;;7377252;19;20639;-60
2023/11/30 08:50:49;;;;;;;82.95;24.25;;;1.10;99.90;;;;;;7376881;19;20034;-59
2023/11/30 08:53:16;;;;;;;92.82;24.20;;;1.00;99.90;;;;;;7377536;19;20014;-58
2023/11/30 08:55:45;;;;;;;76.10;24.33;;;1.00;99.90;;;;;;7377715;19;20102;-59
2023/11/30 08:58:13;;;;;;;119.38;27.02;;;1.00;99.90;;;;;;7378289;19;20078;-60
2023/11/30 09:00:40;;;;;;;108.63;26.08;;;0.90;99.90;;;;;;7373814;19;20401;-60
2023/11/30 09:03:07;;;;;;;58.63;22.00;;;0.90;99.90;;;;;;7375764;19;20501;-60
2023/11/30 09:05:33;;;;;;;83.80;23.42;;;0.90;99.90;;;;;;7376123;19;20748;-60
2023/11/30 09:07:59;;;;;;;142.63;30.83;;;1.00;99.90;;;;;;7376868;19;20026;-61
2023/11/30 09:10:26;;;;;;;62.60;22.90;;;1.00;99.90;;;;;;7375506;19;20022;-58
2023/11/30 09:12:55;;;;;;;70.57;24.63;;;1.00;99.90;;;;;;7376264;19;20490;-60
2023/11/30 09:15:21;;;;;;;53.78;21.40;;;1.10;99.90;;;;;;7372320;19;20028;-61
2023/11/30 09:17:47;;;;;;;62.97;23.25;;;1.10;99.90;;;;;;7374705;19;20014;-61
2023/11/30 09:20:14;;;;;;;74.22;21.88;;;1.10;99.90;;;;;;7375724;19;20022;-61
2023/11/30 09:22:40;;;;;;;62.33;21.58;;;1.10;99.90;;;;;;7377951;19;20023;-61
2023/11/30 09:25:07;;;;;;;77.72;24.85;;;1.10;99.90;;;;;;7376329;19;20027;-60
2023/11/30 09:27:33;;;;;;;73.15;23.65;;;1.20;99.90;;;;;;7377124;19;20014;-60
2023/11/30 09:30:01;;;;;;;80.25;26.13;;;1.20;99.90;;;;;;7375435;19;20014;-60
2023/11/30 09:32:27;;;;;;;65.82;24.08;;;1.20;99.90;;;;;;7373718;19;20475;-61
2023/11/30 09:34:53;;;;;;;65.90;22.75;;;1.30;99.90;;;;;;7374086;19;20766;-61
2023/11/30 09:37:19;;;;;;;105.57;25.25;;;1.40;99.90;;;;;;7374651;19;20494;-61
2023/11/30 09:39:46;;;;;;;81.78;24.45;;;1.40;99.90;;;;;;7374093;19;20014;-61
2023/11/30 09:42:16;;;;;;;61.42;23.60;;;1.30;99.90;;;;;;7375906;19;20018;-61
2023/11/30 09:44:43;;;;;;;57.65;25.30;;;1.30;99.90;;;;;;7374646;19;20047;-61
2023/11/30 09:47:10;;;;;;;52.22;24.38;;;1.30;99.90;;;;;;7375717;19;20025;-61
2023/11/30 09:49:38;;;;;;;43.42;22.42;;;1.30;99.90;;;;;;7375185;19;20054;-61
2023/11/30 09:52:05;;;;;;;52.83;24.38;;;1.30;99.90;;;;;;7376334;19;20018;-61
2023/11/30 09:54:31;;;;;;;52.92;25.58;;;1.30;99.90;;;;;;7374332;19;20018;-61
2023/11/30 09:56:57;;;;;;;58.80;27.00;;;1.30;99.90;;;;;;7376570;19;20030;-61
2023/11/30 09:59:29;;;;;;;67.72;28.48;;;1.40;99.90;;;;;;7373723;19;20384;-60
2023/11/30 10:01:56;;;;;;;97.38;28.08;;;1.40;99.90;;;;;;7376484;19;20018;-61
2023/11/30 10:04:25;;;;;;;135.52;29.75;;;1.30;99.90;;;;;;7374147;19;20019;-61
2023/11/30 10:06:56;;;;;;;131.27;30.00;;;1.30;99.90;;;;;;7372885;19;20025;-61
2023/11/30 10:09:23;;;;;;;141.60;31.65;;;1.30;99.90;;;;;;7374363;19;20026;-61
2023/11/30 10:11:49;;;;;;;124.43;30.77;;;1.30;99.90;;;;;;7377593;19;20023;-61
2023/11/30 10:14:17;;;;;;;92.15;30.77;;;1.40;99.90;;;;;;7376675;19;20018;-59
2023/11/30 10:16:44;;;;;;;108.20;33.17;;;1.40;99.90;;;;;;7373276;19;20474;-59
2023/11/30 10:19:10;;;;;;;97.72;30.42;;;1.40;99.90;;;;;;7373390;19;20043;-59
2023/11/30 10:21:38;;;;;;;84.03;28.92;;;1.50;99.90;;;;;;7374778;19;20021;-60
2023/11/30 10:24:05;;;;;;;130.00;35.45;;;1.40;99.90;;;;;;7373768;19;20015;-61
2023/11/30 10:26:34;;;;;;;125.30;33.30;;;1.60;99.90;;;;;;7374929;19;20111;-60
2023/11/30 10:29:06;;;;;;;123.50;34.63;;;1.50;99.90;;;;;;7374839;19;20089;-59
2023/11/30 10:31:35;;;;;;;161.07;37.03;;;1.60;99.90;;;;;;7375848;19;20051;-59
2023/11/30 10:34:13;;;;;;;109.88;32.63;;;1.60;99.90;;;;;;7375443;19;20018;-59
2023/11/30 10:36:42;;;;;;;142.27;36.88;;;1.70;99.90;;;;;;7375045;19;20011;-60
2023/11/30 10:39:14;;;;;;;226.35;42.55;;;1.70;99.90;;;;;;7373739;19;20025;-60
2023/11/30 10:41:45;;;;;;;;;;;1.60;99.90;;;;;;7381683;19;20022;-61
2023/11/30 10:44:13;;;;;;;113.90;33.72;;;1.60;99.90;;;;;;7380421;19;19978;-61
2023/11/30 10:46:42;;;;;;;89.93;31.30;;;1.60;99.90;;;;;;7382318;19;20817;-61
2023/11/30 10:49:09;;;;;;;208.73;40.08;;;1.60;99.90;;;;;;7382581;19;20030;-59
2023/11/30 10:51:37;;;;;;;168.38;38.53;;;1.60;99.90;;;;;;7382548;19;20018;-60
2023/11/30 10:54:12;;;;;;;73.93;30.35;;;1.60;99.90;;;;;;7382981;19;20589;-59
2023/11/30 10:56:38;;;;;;;103.90;31.85;;;1.70;99.90;;;;;;7380975;19;20014;-59
2023/11/30 10:59:12;;;;;;;150.70;37.30;;;1.50;99.90;;;;;;7383529;19;20011;-60
2023/11/30 11:01:44;;;;;;;77.90;31.25;;;1.60;99.90;;;;;;7384016;19;20035;-59
2023/11/30 11:04:14;;;;;;;141.07;35.45;;;1.60;99.90;;;;;;7382851;19;20105;-59
2023/11/30 11:06:41;;;;;;;104.03;32.47;;;1.60;99.90;;;;;;7380853;19;20499;-59
2023/11/30 11:09:11;;;;;;;106.45;32.00;;;1.60;99.90;;;;;;7380465;19;20078;-59
2023/11/30 11:11:43;;;;;;;203.05;38.85;;;1.60;99.90;;;;;;7384472;19;20078;-60
2023/11/30 11:14:28;;;;;;;131.60;35.95;;;1.50;99.90;;;;;;7382052;19;20098;-60
2023/11/30 11:17:07;;;;;;;118.82;29.35;;;1.60;99.90;;;;;;7381520;19;20367;-59
2023/11/30 11:19:36;;;;;;;119.18;29.70;;;1.60;99.90;;;;;;7375397;19;20014;-62
2023/11/30 11:22:16;;;;;;;87.00;24.27;;;1.60;99.90;;;;;;7380812;19;20034;-62
2023/11/30 11:24:43;;;;;;;135.10;33.55;;;1.60;99.90;;;;;;7377931;19;20021;-62
2023/11/30 11:27:10;;;;;;;112.15;32.70;;;1.50;99.90;;;;;;7373322;19;20557;-62
2023/11/30 11:29:36;;;;;;;135.82;32.83;;;1.60;99.90;;;;;;7378794;19;20152;-62
2023/11/30 11:32:03;;;;;;;134.25;30.60;;;1.60;99.90;;;;;;7377603;19;20022;-62
2023/11/30 11:34:30;;;;;;;101.80;30.42;;;1.70;99.90;;;;;;7378063;19;20478;-62
2023/11/30 11:36:57;;;;;;;109.38;29.05;;;1.60;99.90;;;;;;7381093;19;20526;-60
2023/11/30 11:39:23;;;;;;;136.70;29.73;;;1.60;99.90;;;;;;7380391;19;20022;-60
2023/11/30 11:41:49;;;;;;;126.20;31.00;;;1.60;99.90;;;;;;7377835;19;20478;-60
2023/11/30 11:44:15;;;;;;;148.43;33.45;;;1.70;99.90;;;;;;7380772;19;20030;-60
2023/11/30 11:46:42;;;;;;;179.18;35.70;;;1.70;99.90;;;;;;7380758;19;20022;-60
2023/11/30 11:49:09;;;;;;;153.70;34.17;;;1.60;99.90;;;;;;7378654;19;20691;-61
2023/11/30 11:51:45;;;;;;;72.93;24.90;;;1.60;99.90;;;;;;7378823;19;20440;-60
2023/11/30 11:54:20;;;;;;;98.25;29.05;;;1.60;99.90;;;;;;7382840;19;20019;-62
2023/11/30 11:56:47;;;;;;;65.30;26.67;;;1.70;99.90;;;;;;7377157;19;20058;-62
2023/11/30 11:59:19;;;;;;;78.30;26.58;;;1.70;99.90;;;;;;7379337;19;20106;-60
2023/11/30 12:01:47;;;;;;;75.60;27.52;;;1.70;99.90;;;;;;7380886;19;20026;-61
2023/11/30 12:04:24;;;;;;;64.15;25.48;;;1.60;99.90;;;;;;7378072;19;20029;-60
2023/11/30 12:06:50;;;;;;;91.28;29.58;;;1.70;99.90;;;;;;7375918;19;20125;-60
2023/11/30 12:09:16;;;;;;;70.72;25.05;;;1.60;99.90;;;;;;7379404;19;20106;-61
2023/11/30 12:11:42;;;;;;;87.82;27.55;;;1.60;99.90;;;;;;7378793;19;20011;-60
2023/11/30 12:14:09;;;;;;;64.28;25.20;;;1.60;99.90;;;;;;7378991;19;20015;-60
2023/11/30 12:16:36;;;;;;;60.70;25.92;;;1.70;99.90;;;;;;7380208;19;20108;-60
2023/11/30 12:19:02;;;;;;;72.72;28.02;;;1.70;99.90;;;;;;7379387;19;20024;-60
2023/11/30 12:21:28;;;;;;;88.13;25.58;;;1.70;99.90;;;;;;7380058;19;20621;-60
2023/11/30 12:23:55;;;;;;;71.65;26.52;;;1.60;99.90;;;;;;7375344;19;20475;-60
2023/11/30 12:26:21;;;;;;;73.88;25.10;;;1.60;99.90;;;;;;7369835;19;20021;-61
2023/11/30 12:28:47;;;;;;;59.75;24.50;;;1.60;99.90;;;;;;7375725;19;20022;-60
2023/11/30 12:31:14;;;;;;;56.13;23.52;;;1.60;99.90;;;;;;7376492;19;20050;-62